Time;durP1;ratioP1;P1;durP2;ratioP2;P2;SDS_P1;SDS_P2;PMS_P1;PMS_P2;Temp;Humidity;BMP_temperature;BMP_pressure;BME280_temperature;BME280_humidity;BME280_pressure;Samples;Min_cycle;Max_cycle;Signal;HPM_P1;HPM_P2
2023/07/26 00:02:01;;;;;;;4.13;1.30;;;;;;;22.80;45.08;101094.72;4980900;28;20069;-70
2023/07/26 00:04:27;;;;;;;3.10;1.33;;;;;;;22.79;45.58;101088.56;4981455;28;20035;-71
2023/07/26 00:06:52;;;;;;;2.67;1.13;;;;;;;22.79;45.51;101085.91;4980337;28;20041;-70
2023/07/26 00:09:18;;;;;;;3.55;1.20;;;;;;;22.78;45.34;101094.88;4981007;28;20609;-71
2023/07/26 00:11:43;;;;;;;2.72;1.30;;;;;;;22.79;45.22;101085.06;4980783;28;20055;-70
2023/07/26 00:14:08;;;;;;;3.17;1.20;;;;;;;22.78;45.19;101084.25;4981221;28;20391;-71
2023/07/26 00:16:33;;;;;;;2.35;1.30;;;;;;;22.78;45.35;101078.94;4980861;28;20040;-70
2023/07/26 00:18:59;;;;;;;2.67;1.30;;;;;;;22.76;45.05;101080.88;4981501;28;20038;-70
2023/07/26 00:21:24;;;;;;;3.00;1.40;;;;;;;22.77;44.80;101084.41;4980895;28;20829;-70
2023/07/26 00:23:49;;;;;;;2.55;1.30;;;;;;;22.77;45.05;101081.75;4980913;28;20125;-70
2023/07/26 00:26:15;;;;;;;2.53;1.27;;;;;;;22.77;45.05;101081.75;4981036;28;20038;-70
2023/07/26 00:28:40;;;;;;;3.28;1.40;;;;;;;22.76;45.07;101088.84;4980884;28;20038;-70
2023/07/26 00:31:05;;;;;;;2.97;1.33;;;;;;;22.76;45.20;101077.41;4980751;28;20065;-70
2023/07/26 00:33:31;;;;;;;2.60;1.20;;;;;;;22.75;45.26;101073.94;4963791;28;20826;-70
2023/07/26 00:35:56;;;;;;;2.40;1.15;;;;;;;22.75;45.32;101076.59;4980129;28;20042;-70
2023/07/26 00:38:21;;;;;;;2.75;1.35;;;;;;;22.76;44.92;101078.22;4979874;28;20034;-71
2023/07/26 00:40:47;;;;;;;3.13;1.55;;;;;;;22.75;44.97;101084.56;4980300;28;20041;-71
2023/07/26 00:43:13;;;;;;;2.40;1.30;;;;;;;22.74;44.87;101074.91;4980403;28;20034;-71
2023/07/26 00:45:41;;;;;;;2.50;1.30;;;;;;;22.74;45.05;101085.53;4980672;28;20266;-71
2023/07/26 00:48:07;;;;;;;2.25;1.15;;;;;;;22.74;45.12;101079.38;4980691;28;20053;-71
2023/07/26 00:50:33;;;;;;;3.08;1.38;;;;;;;22.73;45.11;101083.03;4979651;28;20068;-71
2023/07/26 00:52:59;;;;;;;2.38;1.15;;;;;;;22.73;45.21;101078.56;4962991;28;20473;-70
2023/07/26 00:55:24;;;;;;;2.38;1.20;;;;;;;22.71;44.83;101075.19;4979995;28;20053;-70
2023/07/26 00:57:50;;;;;;;2.05;1.20;;;;;;;22.71;45.12;101075.19;4980194;28;20030;-70
2023/07/26 01:00:16;;;;;;;2.42;1.20;;;;;;;22.72;45.32;101076.06;4979500;28;20034;-69
2023/07/26 01:02:42;;;;;;;2.88;1.40;;;;;;;22.70;45.42;101076.19;4979700;28;20044;-69
2023/07/26 01:05:08;;;;;;;3.00;1.35;;;;;;;22.70;45.14;101078.84;4980182;28;20411;-70
2023/07/26 01:08:05;;;;;;;2.88;1.33;;;;;;;22.71;45.09;101077.03;4980055;28;20026;-70
2023/07/26 01:10:38;;;;;;;4.28;1.33;;;;;;;22.69;45.09;101077.19;4980108;28;20507;-69
2023/07/26 01:13:45;;;;;;;3.25;1.40;;;;;;;22.69;45.28;101081.66;4962957;28;20180;-68
2023/07/26 01:16:13;;;;;;;2.97;1.48;;;;;;;22.71;44.89;101090.31;4980003;28;20113;-69
2023/07/26 01:18:38;;;;;;;3.25;1.45;;;;;;;22.70;45.35;101085.97;4962452;28;20483;-70
2023/07/26 01:21:03;;;;;;;3.28;1.40;;;;;;;22.69;45.08;101093.13;4980466;28;20109;-70
2023/07/26 01:23:28;;;;;;;3.77;1.53;;;;;;;22.69;45.09;101081.66;4980449;28;20053;-70
2023/07/26 01:25:54;;;;;;;3.42;1.40;;;;;;;22.69;45.33;101087.81;4978155;28;20803;-70
2023/07/26 01:28:19;;;;;;;3.13;1.48;;;;;;;22.67;44.90;101084.47;4979844;28;20046;-70
2023/07/26 01:30:46;;;;;;;3.00;1.45;;;;;;;22.68;45.18;101090.59;4978988;28;20023;-70
2023/07/26 01:33:12;;;;;;;2.65;1.30;;;;;;;22.67;44.91;101086.25;4979901;28;20149;-71
2023/07/26 01:35:38;;;;;;;3.15;1.38;;;;;;;22.66;45.21;101085.44;4979645;28;20403;-70
2023/07/26 01:38:06;;;;;;;2.35;1.20;;;;;;;22.65;45.12;101083.75;4979494;28;20406;-70
2023/07/26 01:40:32;;;;;;;2.50;1.35;;;;;;;22.65;45.13;101083.75;4978664;28;20536;-70
2023/07/26 01:42:57;;;;;;;2.85;1.52;;;;;;;22.66;44.97;101081.97;4979697;28;20555;-70
2023/07/26 01:45:23;;;;;;;2.72;1.27;;;;;;;22.64;45.26;101084.75;4979964;28;20041;-70
2023/07/26 01:47:49;;;;;;;3.50;1.63;;;;;;;22.62;45.33;101081.41;4979914;28;20112;-70
2023/07/26 01:50:14;;;;;;;2.83;1.20;;;;;;;22.63;45.19;101083.91;4980114;28;20041;-70
2023/07/26 01:52:40;;;;;;;2.75;1.40;;;;;;;22.64;44.92;101080.28;4979634;28;20031;-70
2023/07/26 01:55:06;;;;;;;3.03;1.40;;;;;;;22.63;45.32;101086.56;4980211;28;20042;-70
2023/07/26 01:57:31;;;;;;;2.28;1.20;;;;;;;22.63;45.34;101077.75;4962314;28;20567;-70
2023/07/26 01:59:58;;;;;;;3.10;1.40;;;;;;;22.63;45.19;101077.75;4978565;28;20070;-69
2023/07/26 02:02:24;;;;;;;2.42;1.30;;;;;;;22.63;44.89;101077.75;4979727;28;20049;-69
2023/07/26 02:04:49;;;;;;;4.10;1.60;;;;;;;22.61;45.20;101077.09;4983508;28;20038;-70
2023/07/26 02:07:14;;;;;;;3.10;1.40;;;;;;;22.63;45.24;101075.94;4982968;28;20661;-71
2023/07/26 02:09:40;;;;;;;3.17;1.33;;;;;;;22.61;44.92;101072.59;4982876;28;20061;-70
2023/07/26 02:12:05;;;;;;;4.35;1.30;;;;;;;22.61;45.13;101069.94;4983802;28;20034;-70
2023/07/26 02:14:31;;;;;;;2.67;1.33;;;;;;;22.61;45.46;101072.59;4965936;28;20368;-70
2023/07/26 02:16:56;;;;;;;2.23;1.23;;;;;;;22.59;45.17;101066.63;4983282;28;20036;-70
2023/07/26 02:19:21;;;;;;;3.25;1.30;;;;;;;22.61;45.05;101066.47;4983852;28;20279;-70
2023/07/26 02:21:47;;;;;;;2.70;1.27;;;;;;;22.59;45.25;101063.13;4982678;28;20432;-70
2023/07/26 02:24:12;;;;;;;2.35;1.30;;;;;;;22.59;44.82;101061.31;4983496;28;20043;-70
2023/07/26 02:26:38;;;;;;;3.72;1.48;;;;;;;22.59;44.96;101069.28;4982745;28;20198;-70
2023/07/26 02:29:03;;;;;;;2.70;1.30;;;;;;;22.59;44.99;101071.94;4983192;28;20038;-70
2023/07/26 02:31:30;;;;;;;2.53;1.27;;;;;;;22.56;45.22;101061.59;4983182;28;20038;-70
2023/07/26 02:33:55;;;;;;;2.42;1.42;;;;;;;22.57;45.23;101063.28;4981238;28;20550;-70
2023/07/26 02:36:21;;;;;;;2.90;1.50;;;;;;;22.57;44.96;101071.25;4983120;28;20042;-70
2023/07/26 02:38:46;;;;;;;2.80;1.30;;;;;;;22.56;45.05;101066.91;4982724;28;20121;-71
2023/07/26 02:41:11;;;;;;;3.20;1.10;;;;;;;22.57;44.84;101070.38;4982558;28;20049;-70
2023/07/26 02:43:37;;;;;;;3.15;1.27;;;;;;;22.56;45.16;101068.75;4982864;28;20271;-70
2023/07/26 02:46:02;;;;;;;3.00;1.02;;;;;;;22.56;45.00;101058.94;4983077;28;20034;-71
2023/07/26 02:48:27;;;;;;;2.83;1.30;;;;;;;22.55;44.84;101067.88;4982877;28;20391;-70
2023/07/26 02:50:53;;;;;;;2.30;1.10;;;;;;;22.56;45.24;101074.06;4982524;28;20038;-71
2023/07/26 02:53:18;;;;;;;2.40;1.20;;;;;;;22.55;44.78;101081.16;4983232;28;20034;-70
2023/07/26 02:55:43;;;;;;;3.13;1.30;;;;;;;22.56;44.66;101084.69;4981378;28;20290;-71
2023/07/26 02:58:09;;;;;;;2.42;1.10;;;;;;;22.54;44.89;101087.47;4982676;28;20519;-70
2023/07/26 03:00:34;;;;;;;2.58;1.10;;;;;;;22.54;44.90;101081.31;4982644;28;20034;-71
2023/07/26 03:03:00;;;;;;;2.88;1.40;;;;;;;22.53;44.59;101091.09;4981681;28;20953;-70
2023/07/26 03:05:25;;;;;;;3.70;1.10;;;;;;;22.53;45.11;101091.09;4982433;28;20502;-70
2023/07/26 03:07:50;;;;;;;4.10;1.50;;;;;;;22.53;45.27;101083.13;4982151;28;20092;-70
2023/07/26 03:10:17;;;;;;;2.67;1.10;;;;;;;22.53;45.20;101088.44;4981597;28;20531;-70
2023/07/26 03:12:42;;;;;;;3.80;1.40;;;;;;;22.52;45.11;101083.28;4981806;28;20030;-70
2023/07/26 03:15:08;;;;;;;3.25;1.40;;;;;;;22.52;45.41;101077.97;4982568;28;20483;-70
2023/07/26 03:17:33;;;;;;;2.30;1.25;;;;;;;22.50;45.54;101079.94;4981833;28;20061;-70
2023/07/26 03:19:59;;;;;;;3.17;1.40;;;;;;;22.51;45.72;101077.16;4982301;28;20484;-70
2023/07/26 03:22:24;;;;;;;2.78;1.10;;;;;;;22.51;45.54;101079.81;4982213;28;20636;-70
2023/07/26 03:24:49;;;;;;;5.03;1.38;;;;;;;22.51;45.20;101079.81;4981588;28;20500;-70
2023/07/26 03:27:14;;;;;;;3.30;1.20;;;;;;;22.50;45.44;101079.94;4964242;28;20107;-71
2023/07/26 03:29:40;;;;;;;3.55;1.40;;;;;;;22.50;45.68;101079.94;4982049;28;20622;-71
2023/07/26 03:32:06;;;;;;;4.47;1.50;;;;;;;22.50;45.33;101085.25;4981085;28;20324;-69
2023/07/26 03:34:31;;;;;;;2.90;1.50;;;;;;;22.49;45.40;101092.38;4982500;28;20267;-70
2023/07/26 03:36:56;;;;;;;2.92;1.33;;;;;;;22.49;45.59;101092.38;4981449;28;20034;-70
2023/07/26 03:39:21;;;;;;;2.75;1.25;;;;;;;22.47;45.65;101091.69;4981325;28;20042;-71
2023/07/26 03:41:47;;;;;;;3.58;1.30;;;;;;;22.47;45.74;101086.38;4981342;28;20851;-69
2023/07/26 03:44:12;;;;;;;1.85;0.95;;;;;;;22.48;45.86;101095.19;4981575;28;20391;-70
2023/07/26 03:46:37;;;;;;;3.00;1.27;;;;;;;22.47;45.50;101089.03;4981199;28;20056;-69
2023/07/26 03:49:03;;;;;;;2.78;1.17;;;;;;;22.48;45.41;101089.84;4981827;28;20081;-69
2023/07/26 03:51:28;;;;;;;2.13;1.25;;;;;;;22.48;45.54;101089.84;4980952;28;20030;-70
2023/07/26 03:53:53;;;;;;;1.90;1.15;;;;;;;22.48;45.35;101092.50;4981579;28;20667;-70
2023/07/26 03:56:18;;;;;;;2.90;1.30;;;;;;;22.44;45.70;101079.53;4981493;28;20049;-70
2023/07/26 03:58:44;;;;;;;1.97;0.97;;;;;;;22.45;45.80;101089.19;4963752;28;20465;-70
2023/07/26 04:01:09;;;;;;;2.35;1.30;;;;;;;22.45;45.75;101085.69;4981038;28;20275;-70
2023/07/26 04:03:34;;;;;;;2.42;1.33;;;;;;;22.44;45.62;101084.03;4981199;28;20066;-70
2023/07/26 04:06:00;;;;;;;2.00;1.00;;;;;;;22.45;45.76;101083.88;4980805;28;20464;-70
2023/07/26 04:08:25;;;;;;;3.43;1.30;;;;;;;22.44;45.30;101084.03;4981443;28;20041;-70
2023/07/26 04:10:50;;;;;;;2.83;1.30;;;;;;;22.43;45.50;101083.19;4980966;28;20709;-70
2023/07/26 04:13:16;;;;;;;2.47;1.20;;;;;;;22.44;45.63;101086.66;4980797;28;20525;-69
2023/07/26 04:15:41;;;;;;;3.50;1.20;;;;;;;22.43;45.31;101083.19;4980830;28;20042;-71
2023/07/26 04:18:06;;;;;;;2.45;1.15;;;;;;;22.43;45.18;101085.00;4981445;28;20038;-69
2023/07/26 04:20:31;;;;;;;2.33;1.15;;;;;;;22.44;45.49;101084.03;4980908;28;20038;-69
2023/07/26 04:22:57;;;;;;;2.35;1.10;;;;;;;22.42;45.69;101080.69;4980494;28;20039;-70
2023/07/26 04:25:22;;;;;;;2.30;1.10;;;;;;;22.42;45.66;101089.47;4980239;28;20034;-69
2023/07/26 04:27:47;;;;;;;2.88;1.30;;;;;;;22.41;45.18;101087.81;4980714;28;20032;-69
2023/07/26 04:30:13;;;;;;;3.92;1.30;;;;;;;22.41;45.64;101090.47;4980121;28;20042;-70
2023/07/26 04:32:38;;;;;;;2.42;1.13;;;;;;;22.41;45.60;101086.97;4980918;28;20034;-70
2023/07/26 04:35:03;;;;;;;3.72;1.30;;;;;;;22.41;45.67;101085.16;4980520;28;20511;-70
2023/07/26 04:37:29;;;;;;;3.65;1.48;;;;;;;22.39;45.85;101080.97;4981022;28;20049;-70
2023/07/26 04:39:54;;;;;;;2.65;1.17;;;;;;;22.41;45.80;101087.81;4980429;28;20041;-70
2023/07/26 04:42:19;;;;;;;2.75;1.40;;;;;;;22.39;45.61;101081.81;4979855;28;20273;-70
2023/07/26 04:44:46;;;;;;;2.45;1.35;;;;;;;22.39;45.52;101075.66;4981647;28;20031;-69
2023/07/26 04:47:13;;;;;;;3.42;1.40;;;;;;;22.39;45.57;101087.09;4980167;28;20045;-70
2023/07/26 04:49:39;;;;;;;3.30;1.40;;;;;;;22.38;45.61;101093.44;4979919;28;20030;-70
2023/07/26 04:52:04;;;;;;;2.50;1.17;;;;;;;22.39;45.98;101095.06;4980207;28;20502;-70
2023/07/26 04:54:30;;;;;;;2.60;1.20;;;;;;;22.39;45.97;101094.25;4979758;28;20117;-70
2023/07/26 04:56:55;;;;;;;3.10;1.48;;;;;;;22.38;45.85;101084.59;4980142;28;20057;-70
2023/07/26 04:59:20;;;;;;;2.97;1.42;;;;;;;22.37;45.61;101082.94;4981018;28;20117;-70
2023/07/26 05:01:45;;;;;;;2.92;1.30;;;;;;;22.39;46.03;101081.81;4979999;28;20052;-69
2023/07/26 05:04:11;;;;;;;2.63;1.30;;;;;;;22.39;45.71;101094.25;4980760;28;20034;-70
2023/07/26 05:06:36;;;;;;;2.53;1.33;;;;;;;22.38;46.06;101087.25;4984368;28;20077;-71
2023/07/26 05:09:04;;;;;;;3.13;1.50;;;;;;;22.38;45.79;101089.91;4982328;28;20484;-70
2023/07/26 05:11:30;;;;;;;2.92;1.50;;;;;;;22.39;46.20;101086.28;4980020;28;20054;-70
2023/07/26 05:13:55;;;;;;;5.30;1.48;;;;;;;22.38;46.19;101090.78;4980227;28;20038;-70
2023/07/26 05:16:20;;;;;;;3.25;1.30;;;;;;;22.38;46.01;101092.56;4979323;28;20140;-71
2023/07/26 05:18:46;;;;;;;2.55;1.30;;;;;;;22.38;46.18;101095.22;4978894;28;20117;-70
2023/07/26 05:21:11;;;;;;;3.10;1.40;;;;;;;22.38;46.05;101087.25;4979752;28;20030;-70
2023/07/26 05:23:36;;;;;;;3.07;1.40;;;;;;;22.38;46.06;101088.13;4979249;28;20038;-71
2023/07/26 05:26:01;;;;;;;5.35;1.75;;;;;;;22.37;46.21;101091.75;4979893;28;20279;-71
2023/07/26 05:28:27;;;;;;;3.58;1.70;;;;;;;22.38;46.23;101097.88;4979726;28;20034;-69
2023/07/26 05:30:55;;;;;;;3.92;1.52;;;;;;;22.37;46.31;101088.25;4978688;28;20117;-70
2023/07/26 05:33:20;;;;;;;3.42;1.27;;;;;;;22.37;46.45;101086.44;4978750;28;20042;-69
2023/07/26 05:35:46;;;;;;;3.38;1.60;;;;;;;22.37;46.25;101096.22;4979537;28;20042;-69
2023/07/26 05:38:11;;;;;;;2.55;1.42;;;;;;;22.39;46.25;101088.94;4981516;28;20034;-69
2023/07/26 05:40:36;;;;;;;3.72;1.63;;;;;;;22.41;46.31;101087.81;4983662;28;20042;-68
2023/07/26 05:43:02;;;;;;;3.40;1.50;;;;;;;22.44;46.20;101087.50;4984779;28;20487;-70
2023/07/26 05:45:27;;;;;;;3.30;1.55;;;;;;;22.44;46.67;101098.13;4982688;28;20054;-70
2023/07/26 05:47:52;;;;;;;3.38;1.42;;;;;;;22.46;46.88;101100.63;4984199;28;20045;-70
2023/07/26 05:50:17;;;;;;;2.92;1.35;;;;;;;22.45;46.58;101099.81;4984086;28;20073;-70
2023/07/26 05:52:43;;;;;;;4.68;1.40;;;;;;;22.46;46.72;101090.00;4983248;28;20471;-69
2023/07/26 05:55:09;;;;;;;3.65;1.52;;;;;;;22.45;46.76;101097.16;4984218;28;20030;-70
2023/07/26 05:57:34;;;;;;;5.03;1.50;;;;;;;22.42;47.15;101094.78;4984155;28;20033;-69
2023/07/26 05:59:59;;;;;;;3.63;1.40;;;;;;;22.44;46.81;101094.63;4983065;28;20461;-68
2023/07/26 06:02:25;;;;;;;4.05;2.00;;;;;;;22.45;46.86;101088.34;4983690;28;20058;-68
2023/07/26 06:04:50;;;;;;;3.50;1.60;;;;;;;22.44;47.02;101097.28;4982720;28;20454;-70
2023/07/26 06:07:16;;;;;;;3.57;1.60;;;;;;;22.43;46.95;101100.91;4983165;28;20475;-69
2023/07/26 06:09:44;;;;;;;3.88;1.65;;;;;;;22.43;47.21;101104.44;4982977;28;20267;-69
2023/07/26 06:12:10;;;;;;;4.00;1.63;;;;;;;22.42;47.68;101112.53;4983129;28;20073;-70
2023/07/26 06:14:36;;;;;;;5.50;1.77;;;;;;;22.44;47.76;101118.53;4983002;28;20121;-69
2023/07/26 06:17:01;;;;;;;4.13;1.52;;;;;;;22.44;47.67;101119.38;4982765;28;20034;-69
2023/07/26 06:19:27;;;;;;;4.00;1.70;;;;;;;22.46;48.04;101121.88;4983203;28;20509;-68
2023/07/26 06:21:55;;;;;;;3.78;1.73;;;;;;;22.46;47.83;101128.03;4981808;28;20046;-70
2023/07/26 06:24:25;;;;;;;3.85;1.63;;;;;;;22.46;48.27;101124.53;4982835;28;20129;-70
2023/07/26 06:26:51;;;;;;;3.90;1.70;;;;;;;22.47;47.85;101131.53;4982274;28;20041;-71
2023/07/26 06:29:17;;;;;;;4.70;1.88;;;;;;;22.46;48.18;101136.00;4982906;28;20555;-69
2023/07/26 06:31:42;;;;;;;4.47;1.90;;;;;;;22.45;48.23;101150.25;4982558;28;20034;-72
2023/07/26 06:34:07;;;;;;;5.60;2.03;;;;;;;22.48;48.10;101151.81;4982658;28;20031;-72
2023/07/26 06:36:32;;;;;;;5.30;2.20;;;;;;;22.47;48.09;101152.78;4965142;28;20096;-72
2023/07/26 06:38:58;;;;;;;3.97;1.90;;;;;;;22.46;48.18;101149.28;4982475;28;20065;-72
2023/07/26 06:41:23;;;;;;;3.95;1.65;;;;;;;22.50;48.32;101149.00;4981890;28;20499;-72
2023/07/26 06:43:49;;;;;;;3.47;1.60;;;;;;;22.50;48.42;101155.13;4982173;28;20034;-71
2023/07/26 06:46:14;;;;;;;3.90;1.90;;;;;;;22.48;48.46;101157.09;4982775;28;20045;-72
2023/07/26 06:48:39;;;;;;;4.63;1.80;;;;;;;22.49;48.19;101163.25;4981572;28;20034;-70
2023/07/26 06:51:04;;;;;;;5.03;1.98;;;;;;;22.49;48.49;101164.06;4982735;28;20136;-71
2023/07/26 06:53:30;;;;;;;7.95;2.47;;;;;;;22.48;48.44;101164.22;4983203;28;20113;-72
2023/07/26 06:55:59;;;;;;;4.75;1.90;;;;;;;22.48;48.70;101161.56;4981936;28;20527;-71
2023/07/26 06:58:25;;;;;;;5.47;2.15;;;;;;;22.49;48.71;101168.56;4965070;28;20092;-74
2023/07/26 07:00:51;;;;;;;5.82;1.90;;;;;;;22.49;48.31;101164.06;4982968;28;20041;-71
2023/07/26 07:03:16;;;;;;;4.78;1.98;;;;;;;22.49;48.64;101163.25;4981715;28;20042;-73
2023/07/26 07:05:42;;;;;;;4.28;2.00;;;;;;;22.46;48.76;101159.91;4982153;28;20096;-71
2023/07/26 07:08:07;;;;;;;5.70;2.45;;;;;;;22.46;48.73;101162.56;4981955;28;20112;-73
2023/07/26 07:10:32;;;;;;;4.25;2.28;;;;;;;22.47;48.98;101160.75;4981494;28;20528;-72
2023/07/26 07:12:58;;;;;;;6.90;2.00;;;;;;;22.44;48.73;101169.81;4982109;28;20041;-71
2023/07/26 07:15:23;;;;;;;5.07;2.00;;;;;;;22.45;48.58;101171.50;4981952;28;20034;-70
2023/07/26 07:17:48;;;;;;;6.28;2.20;;;;;;;22.45;49.07;101178.66;4979774;28;20034;-70
2023/07/26 07:20:14;;;;;;;7.38;2.30;;;;;;;22.45;48.71;101179.47;4981514;28;20038;-70
2023/07/26 07:22:39;;;;;;;7.82;2.08;;;;;;;22.39;49.30;101189.84;4960102;28;20215;-73
2023/07/26 07:25:05;;;;;;;5.97;2.10;;;;;;;22.25;50.06;101194.56;4979877;28;20509;-72
2023/07/26 07:27:30;;;;;;;5.40;2.20;;;;;;;22.18;50.40;101192.66;4981844;28;20468;-72
2023/07/26 07:29:55;;;;;;;5.60;2.10;;;;;;;22.13;50.42;101203.72;4982827;28;21023;-71
2023/07/26 07:32:21;;;;;;;3.85;2.00;;;;;;;22.11;50.65;101210.97;4981716;28;20034;-71
2023/07/26 07:34:47;;;;;;;5.63;2.50;;;;;;;22.08;50.47;101219.22;4982080;28;20034;-71
2023/07/26 07:37:12;;;;;;;4.82;2.30;;;;;;;22.07;50.70;101213.06;4981211;28;20040;-71
2023/07/26 07:39:38;;;;;;;6.50;2.25;;;;;;;22.06;50.87;101207.91;4981518;28;20348;-72
2023/07/26 07:42:03;;;;;;;5.68;2.28;;;;;;;22.08;50.83;101212.09;4981916;28;20042;-69
2023/07/26 07:44:29;;;;;;;6.63;2.38;;;;;;;22.26;50.04;101216.69;4979958;28;20034;-67
2023/07/26 07:46:54;;;;;;;5.55;2.00;;;;;;;22.39;49.76;101216.41;4981078;28;20193;-68
2023/07/26 07:49:20;;;;;;;5.93;2.35;;;;;;;22.44;49.30;101217.63;4981224;28;20407;-68
2023/07/26 07:51:45;;;;;;;7.55;2.10;;;;;;;22.49;49.50;101209.22;4980702;28;20038;-68
2023/07/26 07:54:11;;;;;;;5.88;2.20;;;;;;;22.52;49.22;101208.94;4978107;28;20042;-67
2023/07/26 07:56:36;;;;;;;6.95;2.42;;;;;;;22.37;49.89;101202.44;4980371;28;20062;-70
2023/07/26 07:59:01;;;;;;;4.28;2.28;;;;;;;22.44;49.81;101206.16;4980095;28;20038;-68
2023/07/26 08:01:27;;;;;;;5.05;2.00;;;;;;;22.50;49.33;101208.25;4980247;28;20038;-70
2023/07/26 08:03:52;;;;;;;4.82;2.10;;;;;;;22.54;49.52;101195.50;4981199;28;20030;-68
2023/07/26 08:06:17;;;;;;;4.40;2.20;;;;;;;22.57;49.29;101200.53;4980872;28;20026;-72
2023/07/26 08:08:43;;;;;;;5.68;2.17;;;;;;;22.58;49.26;101194.25;4981084;28;20039;-68
2023/07/26 08:11:08;;;;;;;5.28;1.92;;;;;;;22.58;48.95;101195.06;4981412;28;20054;-71
2023/07/26 08:13:34;;;;;;;7.10;1.88;;;;;;;22.60;49.22;101187.78;4979868;28;20045;-68
2023/07/26 08:16:00;;;;;;;5.25;2.22;;;;;;;22.61;48.99;101191.31;4980811;28;20050;-71
2023/07/26 08:18:25;;;;;;;5.82;1.92;;;;;;;22.61;49.09;101197.44;4981017;28;20816;-68
2023/07/26 08:20:51;;;;;;;5.55;2.35;;;;;;;22.60;49.37;101190.44;4980769;28;20049;-68
2023/07/26 08:23:17;;;;;;;5.68;2.20;;;;;;;22.61;49.47;101199.28;4981073;28;20038;-71
2023/07/26 08:25:42;;;;;;;5.10;1.98;;;;;;;22.61;49.36;101196.63;4962724;28;20113;-70
2023/07/26 08:28:07;;;;;;;4.90;2.10;;;;;;;22.60;49.25;101195.75;4980889;28;20038;-69
2023/07/26 08:30:33;;;;;;;5.07;2.00;;;;;;;22.60;49.30;101197.59;4980995;28;20034;-69
2023/07/26 08:32:58;;;;;;;4.13;2.10;;;;;;;22.57;49.77;101190.78;4978331;28;20050;-68
2023/07/26 08:35:24;;;;;;;7.18;2.10;;;;;;;22.57;49.64;101197.88;4980684;28;20038;-69
2023/07/26 08:37:49;;;;;;;6.88;2.20;;;;;;;22.58;49.56;101195.06;4980461;28;20121;-68
2023/07/26 08:40:15;;;;;;;4.65;2.00;;;;;;;22.59;49.97;101198.59;4978346;28;20359;-70
2023/07/26 08:42:41;;;;;;;7.50;2.10;;;;;;;22.59;49.77;101195.94;4979855;28;20495;-68
2023/07/26 08:45:07;;;;;;;4.22;2.10;;;;;;;22.57;49.79;101189.91;4980488;28;20042;-68
2023/07/26 08:47:34;;;;;;;6.65;2.10;;;;;;;22.59;50.09;101201.25;4980302;28;20038;-68
2023/07/26 08:50:00;;;;;;;7.35;2.10;;;;;;;22.61;49.99;101196.63;4962839;28;20034;-67
2023/07/26 08:52:27;;;;;;;4.25;2.28;;;;;;;22.63;49.53;101199.97;4962860;28;20047;-69
2023/07/26 08:54:52;;;;;;;4.75;2.08;;;;;;;22.63;49.88;101200.78;4980364;28;20500;-69
2023/07/26 08:57:18;;;;;;;6.05;2.40;;;;;;;22.57;49.83;101189.91;4978238;28;20113;-72
2023/07/26 08:59:44;;;;;;;6.38;2.22;;;;;;;22.52;50.32;101193.00;4962188;28;20038;-73
2023/07/26 09:02:14;;;;;;;4.30;2.00;;;;;;;22.56;50.03;101188.25;4978371;28;20038;-72
2023/07/26 09:04:40;;;;;;;3.58;1.75;;;;;;;22.57;49.80;101181.94;4979603;28;20034;-73
2023/07/26 09:07:06;;;;;;;6.00;2.05;;;;;;;22.58;49.68;101178.31;4977621;28;20041;-73
2023/07/26 09:09:33;;;;;;;4.80;2.33;;;;;;;22.52;49.96;101184.22;4978922;28;20504;-74
2023/07/26 09:11:58;;;;;;;5.47;1.92;;;;;;;22.49;50.46;101179.19;4978986;28;20065;-74
2023/07/26 09:14:31;;;;;;;7.38;2.10;;;;;;;22.47;50.52;101176.66;4979758;28;20030;-73
2023/07/26 09:17:04;;;;;;;5.05;2.00;;;;;;;22.44;50.27;101176.97;4978395;28;21262;-75
2023/07/26 09:19:34;;;;;;;5.72;2.50;;;;;;;22.41;50.62;101171.94;4978094;28;20038;-73
2023/07/26 09:22:02;;;;;;;5.97;2.30;;;;;;;22.39;50.93;101173.91;4977085;28;20517;-75
2023/07/26 09:24:34;;;;;;;9.65;2.20;;;;;;;22.52;50.39;101170.94;4961358;28;20051;-73
2023/07/26 09:27:09;;;;;;;8.05;2.20;;;;;;;22.63;49.82;101184.84;4979055;28;20045;-73
2023/07/26 09:29:36;;;;;;;8.60;2.00;;;;;;;22.69;49.77;101179.94;4973621;28;20037;-75
2023/07/26 09:32:02;;;;;;;8.02;2.15;;;;;;;22.57;50.15;101181.94;4977310;28;20038;-74
2023/07/26 09:34:32;;;;;;;6.82;2.13;;;;;;;22.48;50.54;101181.00;4977772;28;20121;-70
2023/07/26 09:36:58;;;;;;;6.78;2.20;;;;;;;22.44;50.59;101191.06;4978769;28;20332;-69
2023/07/26 09:39:25;;;;;;;5.78;1.90;;;;;;;22.46;50.69;101185.59;4979757;28;20034;-71
2023/07/26 09:42:08;;;;;;;4.93;2.35;;;;;;;22.44;50.49;101191.06;4979196;28;20042;-71
2023/07/26 09:44:35;;;;;;;4.20;1.92;;;;;;;22.44;50.40;101187.59;4977217;28;20717;-73
2023/07/26 09:47:02;;;;;;;4.60;2.35;;;;;;;22.48;50.22;101182.81;4979139;28;20099;-68
2023/07/26 09:49:29;;;;;;;4.82;1.98;;;;;;;22.53;50.02;101186.72;4979125;28;20388;-69
2023/07/26 09:51:57;;;;;;;4.95;2.03;;;;;;;22.55;49.65;101190.06;4978170;28;20476;-74
2023/07/26 09:54:28;;;;;;;6.28;2.25;;;;;;;22.56;49.98;101185.59;4978363;28;20399;-69
2023/07/26 09:56:55;;;;;;;6.85;2.15;;;;;;;22.53;50.27;101186.72;4979454;28;20049;-77
2023/07/26 09:59:27;;;;;;;4.32;1.88;;;;;;;22.50;49.89;101188.84;4979135;28;20507;-77
2023/07/26 10:02:14;;;;;;;6.50;2.08;;;;;;;22.51;50.04;101185.19;4962820;28;20034;-76
2023/07/26 10:04:50;;;;;;;7.13;2.33;;;;;;;22.51;49.92;101182.53;4978954;28;20817;-77
2023/07/26 10:07:16;;;;;;;4.80;1.90;;;;;;;22.50;50.12;101183.53;4979942;28;20081;-71
2023/07/26 10:09:48;;;;;;;4.57;1.90;;;;;;;22.51;49.86;101182.53;4979451;28;20524;-74
2023/07/26 10:12:14;;;;;;;7.97;2.10;;;;;;;22.51;50.02;101178.06;4982754;28;20038;-73
2023/07/26 10:14:41;;;;;;;3.80;1.70;;;;;;;22.52;50.14;101176.25;4979594;28;20034;-73
2023/07/26 10:17:07;;;;;;;4.20;1.80;;;;;;;22.49;50.14;101174.69;4979669;28;20034;-74
2023/07/26 10:19:34;;;;;;;10.07;2.28;;;;;;;22.47;49.88;101171.38;4961837;28;20392;-73
2023/07/26 10:21:59;;;;;;;4.85;2.13;;;;;;;22.49;49.93;101171.22;4979512;28;20037;-69
2023/07/26 10:24:25;;;;;;;5.38;2.28;;;;;;;22.50;49.95;101165.75;4981650;28;20037;-72
2023/07/26 10:26:53;;;;;;;5.05;2.00;;;;;;;22.50;49.80;101162.28;4982431;28;20105;-68
2023/07/26 10:29:19;;;;;;;5.38;2.35;;;;;;;22.51;50.19;101172.75;4982286;28;20574;-73
2023/07/26 10:31:46;;;;;;;4.93;2.20;;;;;;;22.54;50.00;101167.16;4964647;28;20356;-66
2023/07/26 10:34:19;;;;;;;4.00;1.77;;;;;;;22.58;49.75;101170.34;4982029;28;20168;-68
2023/07/26 10:36:44;;;;;;;5.10;2.00;;;;;;;22.66;49.56;101170.44;4980865;28;20088;-68
2023/07/26 10:39:11;;;;;;;4.50;1.88;;;;;;;22.70;49.63;101171.84;4982106;28;20280;-70
2023/07/26 10:41:37;;;;;;;6.15;2.00;;;;;;;22.74;49.58;101169.72;4964242;28;20038;-68
2023/07/26 10:44:11;;;;;;;4.47;2.10;;;;;;;22.74;49.51;101167.88;4982030;28;20041;-68
2023/07/26 10:46:54;;;;;;;4.55;2.20;;;;;;;22.73;49.43;101162.72;4981642;28;20034;-70
2023/07/26 10:49:26;;;;;;;5.15;2.03;;;;;;;22.74;49.43;101167.06;4982518;28;20034;-70
2023/07/26 10:52:02;;;;;;;4.03;2.00;;;;;;;22.72;49.69;101163.72;4964565;28;20034;-69
2023/07/26 10:54:54;;;;;;;5.57;1.98;;;;;;;22.71;49.56;101168.19;4981729;28;20038;-75
2023/07/26 10:57:20;;;;;;;4.88;2.10;;;;;;;22.71;49.44;101162.88;4982312;28;20547;-74
2023/07/26 11:00:09;;;;;;;5.38;2.08;;;;;;;22.68;49.89;101160.50;4982116;28;20045;-70
2023/07/26 11:02:48;;;;;;;5.25;2.22;;;;;;;22.66;49.56;101165.13;4981455;28;20092;-73
2023/07/26 11:05:20;;;;;;;4.13;1.90;;;;;;;22.64;49.73;101151.16;4978749;28;20034;-72
2023/07/26 11:07:53;;;;;;;4.10;2.03;;;;;;;22.69;49.99;101166.66;4979510;28;20038;-70
2023/07/26 11:10:18;;;;;;;4.80;2.00;;;;;;;22.70;49.90;101168.31;4980131;28;20113;-71
2023/07/26 11:12:44;;;;;;;4.70;1.97;;;;;;;22.69;49.66;101156.03;4979956;28;20042;-71
2023/07/26 11:15:09;;;;;;;6.13;2.20;;;;;;;22.68;49.55;101163.16;4981472;28;20034;-72
2023/07/26 11:17:42;;;;;;;4.38;1.80;;;;;;;22.69;49.96;101161.34;4982163;28;20515;-69
2023/07/26 11:20:11;;;;;;;6.10;1.83;;;;;;;22.68;49.49;101157.84;4964244;28;20114;-68
2023/07/26 11:22:36;;;;;;;5.28;2.03;;;;;;;22.72;49.53;101169.88;4981275;28;20383;-69